createdAt,value
2022-12-19T00:01:02.083Z,5.35
2022-12-19T00:03:28.748Z,6.45
2022-12-19T00:05:55.301Z,5.07
2022-12-19T00:08:21.700Z,4.88
2022-12-19T00:10:55.545Z,6.88
2022-12-19T00:13:21.887Z,5.53
2022-12-19T00:15:48.212Z,6.57
2022-12-19T00:18:14.629Z,6.55
2022-12-19T00:20:40.938Z,6.38
2022-12-19T00:23:07.726Z,6.18
2022-12-19T00:25:34.125Z,7.68
2022-12-19T00:28:04.837Z,6.97
2022-12-19T00:30:31.922Z,7.68
2022-12-19T00:32:58.663Z,10.45
2022-12-19T00:35:25.161Z,7.07
2022-12-19T00:37:51.626Z,8.63
2022-12-19T00:40:18.032Z,8.57
2022-12-19T00:42:48.653Z,8.40
2022-12-19T00:45:18.155Z,10.45
2022-12-19T00:47:47.467Z,10.98
2022-12-19T00:50:13.799Z,12.27
2022-12-19T00:52:43.119Z,11.77
2022-12-19T00:55:11.491Z,10.10
2022-12-19T00:57:45.242Z,10.73
2022-12-19T01:00:11.917Z,10.70
2022-12-19T01:02:38.293Z,11.45
2022-12-19T01:05:04.962Z,13.10
2022-12-19T01:07:31.323Z,9.57
2022-12-19T01:09:57.660Z,11.60
2022-12-19T01:12:42.783Z,17.08
2022-12-19T01:15:09.346Z,11.75
2022-12-19T01:17:38.228Z,19.15
2022-12-19T01:20:11.502Z,16.38
2022-12-19T01:22:37.864Z,18.67
2022-12-19T01:25:05.285Z,16.50
2022-12-19T01:27:31.988Z,19.15
2022-12-19T01:29:58.429Z,18.48
2022-12-19T01:32:24.944Z,18.77
2022-12-19T01:34:51.274Z,18.95
2022-12-19T01:37:18.026Z,23.15
2022-12-19T01:39:44.405Z,23.58
2022-12-19T01:42:16.698Z,20.73
2022-12-19T01:45:02.001Z,21.58
2022-12-19T01:47:28.801Z,24.58
2022-12-19T01:49:55.317Z,23.02
2022-12-19T01:52:23.841Z,23.98
2022-12-19T01:54:50.481Z,22.45
2022-12-19T01:57:18.103Z,21.27
2022-12-19T01:59:47.481Z,22.58
2022-12-19T02:02:20.159Z,22.85
2022-12-19T02:04:47.365Z,22.52
2022-12-19T02:07:15.985Z,28.35
2022-12-19T02:09:43.535Z,25.77
2022-12-19T02:12:09.965Z,19.70
2022-12-19T02:14:36.437Z,24.85
2022-12-19T02:17:08.752Z,25.15
2022-12-19T02:19:53.961Z,24.85
2022-12-19T02:22:23.367Z,23.15
2022-12-19T02:24:55.734Z,33.45
2022-12-19T02:27:30.341Z,24.02
2022-12-19T02:29:59.897Z,19.48
2022-12-19T02:32:38.646Z,28.20
2022-12-19T02:35:05.023Z,31.17
2022-12-19T02:37:36.228Z,24.52
2022-12-19T02:40:05.600Z,27.48
2022-12-19T02:42:34.445Z,28.63
2022-12-19T02:45:05.889Z,28.67
2022-12-19T02:47:33.222Z,26.15
2022-12-19T02:49:59.670Z,26.33
2022-12-19T02:52:25.993Z,25.83
2022-12-19T02:54:53.993Z,31.95
2022-12-19T02:57:29.984Z,22.17
2022-12-19T03:00:07.488Z,30.58
2022-12-19T03:02:33.867Z,28.48
2022-12-19T03:05:00.376Z,26.63
2022-12-19T03:07:35.448Z,27.33
2022-12-19T03:10:12.809Z,30.80
2022-12-19T03:12:45.287Z,25.58
2022-12-19T03:15:11.981Z,27.80
2022-12-19T03:17:38.606Z,26.80
2022-12-19T03:20:08.244Z,28.05
2022-12-19T03:22:35.058Z,27.13
2022-12-19T03:25:01.859Z,26.98
2022-12-19T03:27:29.853Z,26.50
2022-12-19T03:30:01.527Z,32.55
2022-12-19T03:32:28.666Z,30.73
2022-12-19T03:35:08.487Z,23.33
2022-12-19T03:37:37.348Z,26.90
2022-12-19T03:40:06.090Z,26.88
2022-12-19T03:42:51.769Z,26.95
2022-12-19T03:45:23.026Z,26.55
2022-12-19T03:47:52.911Z,29.25
2022-12-19T03:50:19.409Z,24.98
2022-12-19T03:52:48.285Z,24.77
2022-12-19T03:55:17.683Z,28.63
2022-12-19T03:57:47.638Z,26.55
2022-12-19T04:00:15.672Z,27.75
2022-12-19T04:02:44.567Z,24.80
2022-12-19T04:05:13.065Z,26.90
2022-12-19T04:07:39.988Z,26.08
2022-12-19T04:10:07.867Z,27.83
2022-12-19T04:12:37.311Z,28.75
2022-12-19T04:15:04.411Z,24.30
2022-12-19T04:17:49.959Z,26.90
2022-12-19T04:20:17.516Z,32.75
2022-12-19T04:22:56.796Z,26.08
2022-12-19T04:25:29.327Z,25.95
2022-12-19T04:27:58.942Z,23.90
2022-12-19T04:30:25.918Z,30.60
2022-12-19T04:32:52.335Z,29.15
2022-12-19T04:35:18.759Z,24.77
2022-12-19T04:37:45.134Z,26.05
2022-12-19T04:40:11.741Z,29.83
2022-12-19T04:42:38.090Z,28.90
2022-12-19T04:45:05.219Z,25.77
2022-12-19T04:47:31.906Z,27.45
2022-12-19T04:49:58.273Z,29.33
2022-12-19T04:52:24.629Z,29.52
2022-12-19T04:54:50.981Z,25.50
2022-12-19T04:57:17.395Z,26.98
2022-12-19T04:59:43.737Z,23.10
2022-12-19T05:02:10.650Z,25.15
2022-12-19T05:04:37.066Z,23.45
2022-12-19T05:07:03.441Z,32.42
2022-12-19T05:09:31.758Z,26.23
2022-12-19T05:11:58.133Z,29.10
2022-12-19T05:14:24.506Z,26.15
2022-12-19T05:16:53.742Z,29.35
2022-12-19T05:19:22.342Z,24.95
2022-12-19T05:21:48.820Z,24.35
2022-12-19T05:24:15.430Z,22.52
2022-12-19T05:26:42.005Z,25.48
2022-12-19T05:29:08.575Z,24.80
2022-12-19T05:31:34.989Z,24.88
2022-12-19T05:34:01.465Z,30.17
2022-12-19T05:36:32.468Z,26.65
2022-12-19T05:38:59.197Z,26.20
2022-12-19T05:41:25.644Z,31.10
2022-12-19T05:43:53.084Z,23.55
2022-12-19T05:46:23.042Z,23.52
2022-12-19T05:48:49.611Z,31.38
2022-12-19T05:51:16.393Z,27.67
2022-12-19T05:53:42.973Z,24.27
2022-12-19T05:56:11.155Z,24.98
2022-12-19T05:58:37.952Z,24.20
2022-12-19T06:01:05.759Z,24.63
2022-12-19T06:03:32.246Z,22.40
2022-12-19T06:06:02.179Z,28.38
2022-12-19T06:08:28.525Z,30.60
2022-12-19T06:10:54.872Z,24.00
2022-12-19T06:13:25.001Z,24.75
2022-12-19T06:15:56.472Z,25.67
2022-12-19T06:18:22.838Z,29.73
2022-12-19T06:20:58.878Z,25.38
2022-12-19T06:23:26.941Z,25.38
2022-12-19T06:25:55.736Z,30.90
2022-12-19T06:28:22.051Z,23.33
2022-12-19T06:30:48.420Z,24.80
2022-12-19T06:33:15.013Z,26.60
2022-12-19T06:35:41.607Z,31.00
2022-12-19T06:38:08.155Z,31.00
2022-12-19T06:40:52.946Z,28.25
2022-12-19T06:43:19.354Z,27.33
2022-12-19T06:45:45.792Z,27.13
2022-12-19T06:48:12.418Z,30.65
2022-12-19T06:50:38.740Z,24.33
2022-12-19T06:53:05.416Z,22.42
2022-12-19T06:55:32.097Z,26.05
2022-12-19T06:57:58.475Z,28.80
2022-12-19T07:00:26.002Z,22.00
2022-12-19T07:02:52.496Z,23.00
2022-12-19T07:05:19.024Z,21.42
2022-12-19T07:07:45.363Z,22.90
2022-12-19T07:10:11.846Z,24.60
2022-12-19T07:12:38.297Z,27.30
2022-12-19T07:15:05.004Z,27.73
2022-12-19T07:17:31.531Z,30.30
2022-12-19T07:19:58.298Z,26.88
2022-12-19T07:22:27.291Z,27.25
2022-12-19T07:24:54.977Z,26.70
2022-12-19T07:27:22.994Z,27.90
2022-12-19T07:29:49.459Z,24.08
2022-12-19T07:32:15.765Z,26.75
2022-12-19T07:34:42.141Z,29.15
2022-12-19T07:37:08.722Z,27.80
2022-12-19T07:39:35.043Z,26.30
2022-12-19T07:42:01.405Z,28.35
2022-12-19T07:44:27.730Z,23.67
2022-12-19T07:46:54.066Z,24.80
2022-12-19T07:49:22.818Z,24.67
2022-12-19T07:51:49.848Z,23.50
2022-12-19T07:54:16.171Z,23.73
2022-12-19T07:56:42.523Z,21.85
2022-12-19T07:59:09.181Z,21.52
2022-12-19T08:01:35.610Z,23.73
2022-12-19T08:04:02.019Z,20.48
2022-12-19T08:06:28.634Z,23.45
2022-12-19T08:08:55.004Z,20.33
2022-12-19T08:11:29.512Z,21.10
2022-12-19T08:13:56.885Z,20.00
2022-12-19T08:16:24.957Z,23.17
2022-12-19T08:18:51.496Z,26.23
2022-12-19T08:21:18.064Z,21.38
2022-12-19T08:23:45.929Z,20.70
2022-12-19T08:26:13.868Z,18.00
2022-12-19T08:28:40.300Z,16.40
2022-12-19T08:31:06.738Z,17.98
2022-12-19T08:33:33.150Z,16.63
2022-12-19T08:36:02.873Z,16.35
2022-12-19T08:38:29.196Z,16.17
2022-12-19T08:40:55.521Z,17.45
2022-12-19T08:43:21.869Z,17.50
2022-12-19T08:45:51.267Z,19.27
2022-12-19T08:48:17.872Z,19.20
2022-12-19T08:50:50.831Z,16.52
2022-12-19T08:53:21.466Z,20.25
2022-12-19T08:55:56.607Z,20.55
2022-12-19T08:58:23.383Z,19.65
2022-12-19T09:00:55.488Z,19.60
2022-12-19T09:03:24.260Z,18.45
2022-12-19T09:06:07.881Z,17.90
2022-12-19T09:08:36.472Z,20.77
2022-12-19T09:11:15.280Z,23.23
2022-12-19T09:13:42.709Z,18.63
2022-12-19T09:16:13.539Z,17.30
2022-12-19T09:18:45.168Z,17.65
2022-12-19T09:21:14.896Z,23.77
2022-12-19T09:23:41.874Z,21.75
2022-12-19T09:26:10.762Z,24.17
2022-12-19T09:28:38.054Z,19.88
2022-12-19T09:31:05.675Z,20.42
2022-12-19T09:33:38.003Z,19.95
2022-12-19T09:36:09.917Z,17.35
2022-12-19T09:38:38.128Z,20.08
2022-12-19T09:41:13.916Z,18.50
2022-12-19T09:43:42.199Z,21.05
2022-12-19T09:46:08.554Z,21.13
2022-12-19T09:48:34.909Z,21.45
2022-12-19T09:51:10.512Z,20.27
2022-12-19T09:53:58.231Z,19.63
2022-12-19T09:56:28.251Z,22.05
2022-12-19T09:59:00.380Z,21.50
2022-12-19T10:01:30.711Z,17.75
2022-12-19T10:04:03.137Z,20.83
2022-12-19T10:07:12.593Z,21.23
2022-12-19T10:10:09.790Z,17.98
2022-12-19T10:12:45.360Z,23.40
2022-12-19T10:15:00.058Z,20.63
2022-12-19T10:17:29.216Z,20.27
2022-12-19T10:20:03.751Z,19.80
2022-12-19T10:22:52.676Z,20.48
2022-12-19T10:25:28.860Z,19.23
2022-12-19T10:28:00.981Z,19.10
2022-12-19T10:30:31.744Z,18.15
2022-12-19T10:33:01.689Z,15.82
2022-12-19T10:35:32.471Z,13.52
2022-12-19T10:38:05.337Z,10.80
2022-12-19T10:40:39.276Z,12.35
2022-12-19T10:43:28.635Z,13.05
2022-12-19T10:46:01.258Z,12.38
2022-12-19T10:48:30.979Z,13.90
2022-12-19T10:50:57.939Z,13.10
2022-12-19T10:53:28.802Z,16.55
2022-12-19T10:55:56.917Z,13.50
2022-12-19T10:58:27.619Z,21.73
2022-12-19T11:00:53.952Z,19.15
2022-12-19T11:03:20.455Z,17.58
2022-12-19T11:05:52.632Z,18.98
2022-12-19T11:08:25.899Z,16.10
2022-12-19T11:12:37.141Z,15.93
2022-12-19T11:19:13.509Z,19.73
2022-12-19T11:21:16.726Z,16.55
2022-12-19T11:29:27.583Z,18.98
2022-12-19T11:29:54.792Z,16.83
2022-12-19T11:30:36.954Z,23.02
2022-12-19T11:30:46.429Z,22.95
2022-12-19T11:33:27.439Z,32.20
2022-12-19T11:35:55.228Z,31.65
2022-12-19T11:38:42.335Z,30.60
2022-12-19T11:41:14.367Z,26.77
2022-12-19T11:44:03.359Z,23.42
2022-12-19T11:46:34.757Z,27.35
2022-12-19T11:49:11.135Z,28.35
2022-12-19T11:51:37.549Z,27.38
2022-12-19T11:54:19.630Z,27.55
2022-12-19T11:56:46.143Z,32.22
2022-12-19T11:59:16.807Z,29.92
2022-12-19T12:01:58.316Z,33.30
2022-12-19T12:04:27.730Z,29.90
2022-12-19T12:06:55.864Z,31.60
2022-12-19T12:12:42.221Z,33.72
2022-12-19T12:17:53.177Z,35.80
2022-12-19T12:25:30.381Z,31.13
2022-12-19T12:30:26.028Z,32.95
2022-12-19T12:31:21.961Z,38.63
2022-12-19T12:31:40.356Z,30.10
2022-12-19T12:31:46.187Z,33.33
2022-12-19T12:31:53.908Z,31.40
2022-12-19T12:35:38.056Z,33.78
2022-12-19T12:37:52.533Z,34.38
2022-12-19T12:38:43.077Z,33.08
2022-12-19T12:41:51.862Z,29.30
2022-12-19T12:44:18.261Z,28.20
2022-12-19T12:47:01.347Z,32.33
2022-12-19T12:49:39.110Z,30.38
2022-12-19T12:52:22.759Z,34.97
2022-12-19T12:54:50.232Z,31.08
2022-12-19T12:57:33.818Z,35.72
2022-12-19T13:00:31.900Z,35.70
2022-12-19T13:03:07.516Z,37.97
2022-12-19T13:05:46.469Z,31.05
2022-12-19T13:08:31.144Z,35.10
2022-12-19T13:11:11.502Z,40.15
2022-12-19T13:14:07.474Z,37.05
2022-12-19T13:16:46.000Z,35.05
2022-12-19T13:19:20.949Z,42.42
2022-12-19T13:22:07.566Z,40.58
2022-12-19T13:24:45.297Z,34.95
2022-12-19T13:27:20.965Z,42.40
2022-12-19T13:29:51.074Z,42.63
2022-12-19T13:32:17.466Z,42.45
2022-12-19T13:34:58.598Z,44.63
2022-12-19T13:39:58.316Z,50.20
2022-12-19T13:40:43.325Z,42.55
2022-12-19T13:43:43.688Z,48.42
2022-12-19T13:46:28.891Z,48.42
2022-12-19T13:48:57.557Z,36.03
2022-12-19T13:51:23.960Z,39.50
2022-12-19T13:53:59.022Z,48.38
2022-12-19T13:56:30.142Z,40.75
2022-12-19T13:58:58.224Z,49.17
2022-12-19T14:01:27.675Z,51.88
2022-12-19T14:03:55.818Z,44.65
2022-12-19T14:06:25.286Z,45.30
2022-12-19T14:09:58.682Z,49.97
2022-12-19T14:13:45.565Z,52.53
2022-12-19T14:14:48.914Z,51.88
2022-12-19T14:17:29.311Z,45.78
2022-12-19T14:20:37.204Z,57.63
2022-12-19T14:22:42.385Z,49.28
2022-12-19T14:28:14.470Z,51.67
2022-12-19T14:28:17.253Z,50.88
2022-12-19T14:30:47.870Z,48.70
2022-12-19T14:33:44.324Z,41.28
2022-12-19T14:36:07.601Z,47.30
2022-12-19T14:41:46.515Z,45.97
2022-12-19T14:52:34.426Z,41.42
2022-12-19T14:52:51.264Z,50.53
2022-12-19T14:54:14.695Z,43.70
2022-12-19T14:54:24.630Z,48.38
2022-12-19T14:56:15.944Z,47.65
2022-12-19T14:58:56.107Z,46.08
2022-12-19T15:01:25.092Z,47.25
2022-12-19T15:04:47.351Z,51.38
2022-12-19T15:07:09.185Z,55.92
2022-12-19T15:11:06.969Z,45.08
2022-12-19T15:14:49.362Z,51.22
2022-12-19T15:15:52.360Z,47.45
2022-12-19T15:18:27.217Z,53.88
2022-12-19T15:20:55.749Z,54.28
2022-12-19T15:23:23.006Z,46.72
2022-12-19T15:26:07.121Z,54.45
2022-12-19T15:28:36.694Z,51.42
2022-12-19T15:31:05.476Z,50.97
2022-12-19T15:33:31.885Z,55.40
2022-12-19T15:35:58.399Z,54.25
2022-12-19T15:38:24.882Z,52.67
2022-12-19T15:40:51.220Z,52.88
2022-12-19T15:43:53.587Z,53.53
2022-12-19T15:46:05.746Z,54.20
2022-12-19T15:48:33.625Z,53.92
2022-12-19T15:51:00.461Z,48.78
2022-12-19T15:53:40.385Z,40.95
2022-12-19T15:56:16.698Z,56.33
2022-12-19T16:01:09.313Z,51.20
2022-12-19T16:03:35.996Z,52.90
2022-12-19T16:06:02.576Z,48.03
2022-12-19T16:08:29.119Z,52.72
2022-12-19T16:11:01.502Z,54.20
2022-12-19T16:13:34.696Z,50.47
2022-12-19T16:16:01.417Z,54.15
2022-12-19T16:18:27.756Z,56.17
2022-12-19T16:20:54.127Z,54.95
2022-12-19T16:23:22.368Z,59.50
2022-12-19T16:25:52.192Z,56.13
2022-12-19T16:28:25.689Z,53.60
2022-12-19T16:30:52.254Z,56.95
2022-12-19T16:33:21.586Z,49.75
2022-12-19T16:36:04.313Z,53.90
2022-12-19T16:38:31.946Z,53.15
2022-12-19T16:40:58.561Z,53.38
2022-12-19T16:43:25.463Z,54.95
2022-12-19T16:45:51.780Z,58.33
2022-12-19T16:48:25.186Z,65.28
2022-12-19T16:50:51.579Z,55.65
2022-12-19T16:53:17.987Z,59.05
2022-12-19T16:55:45.654Z,52.67
2022-12-19T16:58:16.315Z,53.97
2022-12-19T17:00:42.716Z,50.17
2022-12-19T17:03:26.538Z,55.70
2022-12-19T17:05:53.267Z,47.13
2022-12-19T17:08:20.554Z,55.17
2022-12-19T17:10:47.493Z,56.35
2022-12-19T17:13:21.100Z,56.10
2022-12-19T17:15:54.306Z,54.38
2022-12-19T17:20:50.579Z,53.97
2022-12-19T17:23:18.931Z,54.65
2022-12-19T17:25:45.670Z,50.90
2022-12-19T17:28:12.677Z,52.10
2022-12-19T17:30:39.952Z,53.08
2022-12-19T17:33:07.210Z,50.03
2022-12-19T17:35:36.939Z,50.78
2022-12-19T17:38:03.640Z,48.72
2022-12-19T17:40:30.991Z,55.92
2022-12-19T17:42:58.211Z,44.55
2022-12-19T17:45:28.861Z,45.90
2022-12-19T17:48:02.078Z,53.10
2022-12-19T17:50:30.706Z,50.78
2022-12-19T17:52:57.382Z,47.03
2022-12-19T17:55:24.803Z,49.75
2022-12-19T17:57:51.536Z,52.60
2022-12-19T18:00:19.152Z,47.25
2022-12-19T18:02:46.740Z,43.25
2022-12-19T18:05:19.660Z,51.78
2022-12-19T18:07:46.292Z,48.15
2022-12-19T18:10:16.392Z,49.13
2022-12-19T18:12:42.773Z,58.60
2022-12-19T18:15:09.956Z,52.35
2022-12-19T18:17:37.661Z,50.13
2022-12-19T18:20:13.863Z,50.50
2022-12-19T18:22:40.230Z,45.38
2022-12-19T18:25:14.033Z,44.13
2022-12-19T18:27:40.362Z,46.85
2022-12-19T18:30:07.195Z,44.30
2022-12-19T18:32:33.514Z,45.60
2022-12-19T18:34:59.935Z,53.08
2022-12-19T18:37:26.286Z,53.67
2022-12-19T18:39:55.501Z,45.78
2022-12-19T18:42:21.984Z,48.03
2022-12-19T18:44:48.405Z,47.17
2022-12-19T18:47:32.817Z,51.08
2022-12-19T18:49:59.118Z,51.55
2022-12-19T18:52:25.868Z,42.08
2022-12-19T18:54:52.287Z,50.58
2022-12-19T18:57:18.618Z,48.53
2022-12-19T18:59:44.989Z,53.42
2022-12-19T19:02:37.754Z,48.35
2022-12-19T19:05:04.393Z,44.42
2022-12-19T19:07:30.703Z,45.90
2022-12-19T19:09:57.027Z,44.08
2022-12-19T19:12:23.368Z,44.90
2022-12-19T19:14:50.437Z,42.15
2022-12-19T19:17:22.280Z,42.03
2022-12-19T19:19:48.847Z,40.15
2022-12-19T19:22:15.189Z,41.33
2022-12-19T19:24:41.659Z,46.42
2022-12-19T19:27:08.089Z,50.05
2022-12-19T19:29:34.481Z,46.55
2022-12-19T19:32:00.833Z,44.08
2022-12-19T19:34:29.375Z,46.38
2022-12-19T19:36:57.020Z,60.83
2022-12-19T19:39:23.732Z,43.17
2022-12-19T19:41:50.151Z,50.00
2022-12-19T19:44:16.510Z,42.85
2022-12-19T19:46:43.016Z,50.20
2022-12-19T19:49:09.484Z,44.25
2022-12-19T19:51:35.860Z,42.30
2022-12-19T19:54:02.296Z,44.88
2022-12-19T19:56:28.902Z,50.83
2022-12-19T19:58:57.576Z,45.35
2022-12-19T20:01:24.119Z,45.13
2022-12-19T20:03:50.668Z,46.17
2022-12-19T20:06:17.833Z,41.88
2022-12-19T20:08:44.806Z,42.67
2022-12-19T20:11:11.151Z,37.53
2022-12-19T20:13:37.963Z,38.42
2022-12-19T20:16:04.431Z,42.05
2022-12-19T20:18:30.865Z,37.85
2022-12-19T20:20:57.489Z,38.90
2022-12-19T20:23:24.005Z,40.33
2022-12-19T20:25:50.353Z,36.78
2022-12-19T20:28:17.849Z,33.00
2022-12-19T20:30:45.256Z,37.80
2022-12-19T20:33:11.798Z,37.55
2022-12-19T20:35:38.162Z,36.03
2022-12-19T20:38:04.516Z,37.90
2022-12-19T20:40:30.878Z,35.28
2022-12-19T20:42:57.175Z,31.17
2022-12-19T20:45:23.535Z,35.22
2022-12-19T20:47:52.906Z,35.13
2022-12-19T20:50:19.231Z,36.67
2022-12-19T20:52:45.930Z,33.50
2022-12-19T20:55:12.282Z,30.35
2022-12-19T20:57:38.706Z,28.13
2022-12-19T21:00:06.267Z,26.13
2022-12-19T21:02:52.645Z,27.80
2022-12-19T21:05:20.472Z,24.55
2022-12-19T21:07:46.904Z,29.10
2022-12-19T21:10:13.421Z,25.25
2022-12-19T21:12:43.838Z,23.08
2022-12-19T21:15:13.986Z,26.38
2022-12-19T21:17:40.284Z,30.05
2022-12-19T21:20:06.971Z,23.35
2022-12-19T21:22:33.495Z,23.38
2022-12-19T21:24:59.855Z,27.05
2022-12-19T21:27:26.271Z,26.48
2022-12-19T21:29:52.766Z,26.77
2022-12-19T21:32:19.438Z,28.05
2022-12-19T21:34:45.796Z,21.98
2022-12-19T21:37:12.194Z,27.95
2022-12-19T21:39:38.575Z,110.25
2022-12-19T21:42:06.013Z,37.80
2022-12-19T21:44:32.347Z,22.13
2022-12-19T21:46:58.782Z,25.80
2022-12-19T21:49:25.216Z,26.55
2022-12-19T21:51:51.608Z,26.45
2022-12-19T21:54:18.176Z,21.85
2022-12-19T21:56:44.565Z,24.67
2022-12-19T21:59:12.311Z,20.98
2022-12-19T22:01:38.959Z,22.38
2022-12-19T22:04:07.066Z,21.52
2022-12-19T22:06:34.502Z,22.60
2022-12-19T22:09:01.520Z,26.08
2022-12-19T22:11:28.641Z,23.45
2022-12-19T22:13:55.655Z,23.42
2022-12-19T22:16:22.065Z,23.58
2022-12-19T22:18:50.006Z,25.17
2022-12-19T22:21:16.438Z,28.95
2022-12-19T22:23:45.982Z,34.75
2022-12-19T22:26:13.653Z,37.20
2022-12-19T22:28:40.855Z,27.88
2022-12-19T22:31:17.886Z,34.95
2022-12-19T22:33:44.694Z,30.38
2022-12-19T22:36:15.894Z,29.67
2022-12-19T22:38:46.820Z,33.13
2022-12-19T22:41:13.822Z,36.00
2022-12-19T22:43:40.236Z,32.05
2022-12-19T22:46:10.571Z,28.85
2022-12-19T22:48:37.629Z,29.67
2022-12-19T22:51:04.030Z,30.95
2022-12-19T22:53:30.419Z,30.65
2022-12-19T22:55:56.729Z,27.98
2022-12-19T22:58:23.082Z,28.00
2022-12-19T23:00:49.622Z,30.33
2022-12-19T23:03:16.326Z,29.75
2022-12-19T23:05:46.956Z,34.92
2022-12-19T23:08:16.519Z,30.20
2022-12-19T23:10:42.859Z,35.20
2022-12-19T23:13:09.277Z,31.80
2022-12-19T23:15:35.779Z,39.45
2022-12-19T23:18:02.145Z,36.17
2022-12-19T23:20:28.487Z,34.70
2022-12-19T23:22:54.861Z,31.35
2022-12-19T23:25:21.304Z,32.88
2022-12-19T23:27:47.834Z,33.88
2022-12-19T23:30:14.200Z,28.77
2022-12-19T23:32:45.476Z,35.90
2022-12-19T23:35:15.250Z,36.53
2022-12-19T23:37:43.523Z,34.17
2022-12-19T23:40:10.250Z,35.45
2022-12-19T23:42:36.659Z,35.55
2022-12-19T23:45:03.357Z,40.10
2022-12-19T23:47:29.751Z,37.47
2022-12-19T23:49:56.110Z,40.53
2022-12-19T23:52:22.480Z,35.22
2022-12-19T23:54:48.817Z,30.17
2022-12-19T23:57:15.236Z,32.47
2022-12-19T23:59:41.575Z,29.75
